Time;durP1;ratioP1;P1;durP2;ratioP2;P2;SDS_P1;SDS_P2;PMS_P1;PMS_P2;Temp;Humidity;BMP_temperature;BMP_pressure;BME280_temperature;BME280_humidity;BME280_pressure;Samples;Min_cycle;Max_cycle;Signal;HPM_P1;HPM_P2
2023/05/18 00:00:00;;;;;;;7.37;3.77;;;14.10;44.10;;;;;;5047346;28;20449;-81
2023/05/18 00:02:27;;;;;;;6.10;3.20;;;14.00;44.10;;;;;;5037709;28;20449;-81
2023/05/18 00:04:54;;;;;;;5.60;2.90;;;14.00;44.90;;;;;;5041625;28;20449;-82
2023/05/18 00:07:21;;;;;;;7.97;2.80;;;14.00;44.70;;;;;;5034252;28;20441;-82
2023/05/18 00:09:49;;;;;;;4.03;2.37;;;14.00;44.80;;;;;;5032968;28;20809;-81
2023/05/18 00:12:16;;;;;;;7.17;2.40;;;14.00;45.20;;;;;;5017849;28;20469;-83
2023/05/18 00:14:43;;;;;;;4.63;3.00;;;14.00;45.30;;;;;;5052206;28;20461;-82
2023/05/18 00:17:10;;;;;;;7.63;2.87;;;14.00;45.10;;;;;;5026699;28;21023;-82
2023/05/18 00:19:39;;;;;;;8.03;2.93;;;14.00;45.40;;;;;;5011436;28;20454;-80
2023/05/18 00:22:06;;;;;;;9.20;2.70;;;14.00;45.80;;;;;;5022830;28;20472;-82
2023/05/18 00:24:33;;;;;;;7.60;3.17;;;14.00;45.80;;;;;;5036289;28;20444;-83
2023/05/18 00:27:01;;;;;;;3.40;2.33;;;13.90;45.70;;;;;;5036979;28;20823;-80
2023/05/18 00:29:28;;;;;;;4.23;3.40;;;13.90;45.90;;;;;;5048936;28;21011;-81
2023/05/18 00:31:55;;;;;;;4.90;2.60;;;13.90;45.70;;;;;;5033518;28;20560;-82
2023/05/18 00:34:22;;;;;;;2.87;2.57;;;13.90;45.70;;;;;;5016286;28;20492;-81
2023/05/18 00:36:49;;;;;;;3.70;2.97;;;13.90;45.60;;;;;;5030710;28;21065;-81
2023/05/18 00:39:17;;;;;;;3.00;2.70;;;13.90;45.50;;;;;;5050714;28;20994;-80
2023/05/18 00:41:44;;;;;;;3.17;2.73;;;13.90;45.40;;;;;;5003934;28;20615;-83
2023/05/18 00:44:12;;;;;;;4.70;2.53;;;13.80;45.30;;;;;;5008656;28;21019;-82
2023/05/18 00:46:40;;;;;;;8.63;3.47;;;13.80;45.80;;;;;;5051837;28;20444;-81
2023/05/18 00:49:07;;;;;;;4.77;2.80;;;13.80;46.20;;;;;;5024314;28;20461;-81
2023/05/18 00:51:34;;;;;;;5.03;3.00;;;13.70;46.00;;;;;;5010910;28;20469;-83
2023/05/18 00:54:04;;;;;;;11.00;2.93;;;13.10;46.30;;;;;;5026207;28;20540;-83
2023/05/18 00:56:32;;;;;;;6.33;3.00;;;12.80;47.40;;;;;;5002090;28;20972;-80
2023/05/18 00:59:02;;;;;;;6.30;3.07;;;12.30;48.40;;;;;;5020431;28;20978;-82
2023/05/18 01:01:34;;;;;;;5.57;2.73;;;11.70;49.10;;;;;;5020253;28;20865;-83
2023/05/18 01:04:03;;;;;;;11.07;3.20;;;11.20;50.60;;;;;;5017745;28;20981;-81
2023/05/18 01:06:34;;;;;;;5.70;2.73;;;10.90;51.10;;;;;;5019386;28;20442;-81
2023/05/18 01:09:03;;;;;;;3.90;2.70;;;10.60;51.90;;;;;;5007297;28;21044;-80
2023/05/18 01:11:38;;;;;;;3.93;2.60;;;10.60;52.10;;;;;;5028428;28;20561;-81
2023/05/18 01:14:14;;;;;;;5.83;2.60;;;10.40;52.60;;;;;;5014047;28;21042;-82
2023/05/18 01:16:48;;;;;;;3.87;3.30;;;10.70;52.30;;;;;;5028023;28;20455;-82
2023/05/18 01:19:40;;;;;;;3.27;2.60;;;11.00;51.60;;;;;;5018734;28;20453;-81
2023/05/18 01:22:20;;;;;;;4.50;3.50;;;11.60;51.20;;;;;;5019772;28;20473;-82
2023/05/18 01:24:52;;;;;;;6.30;2.80;;;12.00;50.10;;;;;;5024708;28;20538;-82
2023/05/18 01:27:24;;;;;;;3.60;2.60;;;11.90;49.80;;;;;;5005082;28;20457;-82
2023/05/18 01:29:52;;;;;;;3.80;3.13;;;12.10;49.70;;;;;;5016143;28;20469;-82
2023/05/18 01:32:21;;;;;;;11.50;3.37;;;12.30;49.50;;;;;;5016452;28;20469;-81
2023/05/18 01:34:50;;;;;;;7.40;2.87;;;12.40;49.10;;;;;;5049073;28;20464;-80
2023/05/18 01:37:17;;;;;;;4.10;2.73;;;12.60;48.50;;;;;;5033963;28;20496;-80
2023/05/18 01:39:44;;;;;;;7.53;3.20;;;12.70;48.30;;;;;;5006650;28;20441;-82
2023/05/18 01:42:19;;;;;;;5.63;3.70;;;12.80;48.30;;;;;;5015761;28;20905;-81
2023/05/18 01:44:53;;;;;;;5.20;4.00;;;12.80;48.20;;;;;;5009940;28;20990;-82
2023/05/18 01:47:20;;;;;;;5.70;2.70;;;12.90;48.20;;;;;;5034775;28;21135;-82
2023/05/18 01:49:52;;;;;;;3.03;2.60;;;12.90;48.10;;;;;;5019539;28;20444;-79
2023/05/18 01:52:24;;;;;;;9.30;3.00;;;12.90;47.80;;;;;;5026240;28;20503;-79
2023/05/18 01:54:56;;;;;;;2.90;2.60;;;12.80;47.80;;;;;;5000204;28;20453;-81
2023/05/18 01:57:27;;;;;;;7.73;3.67;;;12.80;47.90;;;;;;5008437;28;20531;-82
2023/05/18 01:59:56;;;;;;;3.50;2.90;;;12.80;47.80;;;;;;5014776;28;20488;-80
2023/05/18 02:02:23;;;;;;;6.03;3.70;;;12.60;47.90;;;;;;5041992;28;20575;-83
2023/05/18 02:04:52;;;;;;;3.83;3.00;;;12.60;48.70;;;;;;5014563;28;20449;-79
2023/05/18 02:07:19;;;;;;;10.63;3.60;;;12.60;48.50;;;;;;5025249;28;20454;-81
2023/05/18 02:09:46;;;;;;;9.30;3.40;;;12.60;48.60;;;;;;5052074;28;20449;-82
2023/05/18 02:12:13;;;;;;;7.00;3.90;;;12.50;48.70;;;;;;5020403;28;20475;-82
2023/05/18 02:14:40;;;;;;;3.10;2.80;;;12.60;48.60;;;;;;5017300;28;20493;-80
2023/05/18 02:17:09;;;;;;;8.60;3.17;;;12.60;48.40;;;;;;5024581;28;20548;-81
2023/05/18 02:19:36;;;;;;;2.70;2.50;;;12.70;48.30;;;;;;5023660;28;20456;-81
2023/05/18 02:22:04;;;;;;;3.03;2.67;;;12.70;48.50;;;;;;5006297;28;20869;-81
2023/05/18 02:24:31;;;;;;;4.50;2.90;;;12.70;48.90;;;;;;5031436;28;20461;-81
2023/05/18 02:26:58;;;;;;;5.10;3.07;;;12.70;48.80;;;;;;5029011;28;20536;-80
2023/05/18 02:29:26;;;;;;;4.87;2.60;;;12.70;48.60;;;;;;5025560;28;20449;-80
2023/05/18 02:31:53;;;;;;;6.43;3.20;;;12.60;48.60;;;;;;5019803;28;20576;-80
2023/05/18 02:34:23;;;;;;;4.73;3.27;;;12.60;48.50;;;;;;5024453;28;20489;-81
2023/05/18 02:36:50;;;;;;;6.73;3.20;;;12.60;48.40;;;;;;5034340;28;20533;-81
2023/05/18 02:39:17;;;;;;;3.20;2.40;;;12.60;48.60;;;;;;4998339;28;20461;-82
2023/05/18 02:41:45;;;;;;;5.20;2.97;;;12.60;48.40;;;;;;5009048;28;20477;-79
2023/05/18 02:44:12;;;;;;;3.20;2.93;;;12.60;48.30;;;;;;5000283;28;20450;-83
2023/05/18 02:46:39;;;;;;;4.87;3.10;;;12.60;48.50;;;;;;5032461;28;20819;-82
2023/05/18 02:49:07;;;;;;;8.00;3.47;;;12.60;48.50;;;;;;5029721;28;21368;-79
2023/05/18 02:51:35;;;;;;;5.20;3.00;;;12.50;48.70;;;;;;5019011;28;20572;-80
2023/05/18 02:54:03;;;;;;;5.77;3.00;;;12.40;49.00;;;;;;5029387;28;20485;-80
2023/05/18 02:56:32;;;;;;;6.00;3.40;;;12.30;49.20;;;;;;5007376;28;20453;-82
2023/05/18 02:59:08;;;;;;;6.10;2.90;;;12.30;48.90;;;;;;5038070;28;20958;-82
2023/05/18 03:01:42;;;;;;;9.80;3.10;;;12.30;48.80;;;;;;5016812;28;20469;-79
2023/05/18 03:04:10;;;;;;;4.60;3.30;;;12.30;48.80;;;;;;5022675;28;20449;-81
2023/05/18 03:06:45;;;;;;;4.80;2.87;;;12.40;48.80;;;;;;5014483;28;20588;-79
2023/05/18 03:09:12;;;;;;;10.20;3.60;;;12.40;48.80;;;;;;5014695;28;20939;-79
2023/05/18 03:11:42;;;;;;;4.37;2.50;;;12.30;49.40;;;;;;5024688;28;20559;-81
2023/05/18 03:14:10;;;;;;;7.50;3.57;;;12.30;49.20;;;;;;5021858;28;20456;-80
2023/05/18 03:16:37;;;;;;;4.07;3.10;;;12.20;49.10;;;;;;5020221;28;20484;-80
2023/05/18 03:19:07;;;;;;;7.20;3.73;;;12.20;49.40;;;;;;5008286;28;20433;-81
2023/05/18 03:21:38;;;;;;;4.93;3.60;;;12.20;49.50;;;;;;5015596;28;20548;-81
2023/05/18 03:24:08;;;;;;;5.67;3.27;;;12.20;49.50;;;;;;5022495;28;20441;-81
2023/05/18 03:26:40;;;;;;;6.30;3.17;;;12.20;49.30;;;;;;5033033;28;20450;-82
2023/05/18 03:29:07;;;;;;;4.60;2.60;;;12.20;49.30;;;;;;5016031;28;21125;-79
2023/05/18 03:31:34;;;;;;;4.30;3.13;;;12.20;49.20;;;;;;5034307;28;20978;-81
2023/05/18 03:34:02;;;;;;;4.57;3.23;;;12.20;49.30;;;;;;5029158;28;20517;-79
2023/05/18 03:36:29;;;;;;;4.17;3.70;;;12.20;49.40;;;;;;5030492;28;20943;-81
2023/05/18 03:38:56;;;;;;;5.60;3.70;;;12.10;49.40;;;;;;5049628;28;20735;-82
2023/05/18 03:41:25;;;;;;;5.37;2.97;;;12.10;49.20;;;;;;5017552;28;21142;-82
2023/05/18 03:43:54;;;;;;;6.93;3.23;;;12.10;49.50;;;;;;5033656;28;20541;-85
2023/05/18 03:46:22;;;;;;;8.47;3.60;;;12.10;49.60;;;;;;5035867;28;20452;-80
2023/05/18 03:48:49;;;;;;;3.97;3.50;;;12.00;49.70;;;;;;5052818;28;20456;-79
2023/05/18 03:51:21;;;;;;;5.23;3.03;;;12.00;49.70;;;;;;4997714;28;20558;-83
2023/05/18 03:53:47;;;;;;;3.50;3.20;;;12.00;49.60;;;;;;5004024;28;20452;-81
2023/05/18 03:56:14;;;;;;;5.23;3.00;;;12.00;49.70;;;;;;5033934;28;20922;-81
2023/05/18 03:58:43;;;;;;;6.00;3.03;;;12.00;49.80;;;;;;5027784;28;20468;-83
2023/05/18 04:01:10;;;;;;;8.67;3.30;;;12.00;50.00;;;;;;5032900;28;20476;-82
2023/05/18 04:03:39;;;;;;;5.10;3.40;;;12.00;50.00;;;;;;5022616;28;20449;-79
2023/05/18 04:06:09;;;;;;;5.23;3.43;;;12.00;50.20;;;;;;5035268;28;20839;-79
2023/05/18 04:08:39;;;;;;;5.13;3.30;;;11.90;50.60;;;;;;5037374;28;21072;-83
2023/05/18 04:11:06;;;;;;;6.20;4.17;;;11.80;50.90;;;;;;5028181;28;20900;-80
2023/05/18 04:13:33;;;;;;;5.37;3.50;;;11.80;50.80;;;;;;5036636;28;20461;-82
2023/05/18 04:16:02;;;;;;;3.87;3.47;;;11.80;51.60;;;;;;5036794;28;20452;-80
2023/05/18 04:18:31;;;;;;;5.37;3.03;;;11.70;51.70;;;;;;5033690;28;20448;-80
2023/05/18 04:20:59;;;;;;;5.00;2.97;;;11.70;51.60;;;;;;5019866;28;20977;-82
2023/05/18 04:23:27;;;;;;;4.00;2.83;;;11.80;51.50;;;;;;5018000;28;21022;-83
2023/05/18 04:25:55;;;;;;;5.87;3.37;;;11.80;51.30;;;;;;5015219;28;20994;-82
2023/05/18 04:28:22;;;;;;;6.73;3.60;;;11.90;51.30;;;;;;5026603;28;20450;-83
2023/05/18 04:30:50;;;;;;;5.10;3.60;;;11.90;51.20;;;;;;5027664;28;20484;-80
2023/05/18 04:33:19;;;;;;;5.57;2.87;;;12.00;50.90;;;;;;5000822;28;20449;-82
2023/05/18 04:35:46;;;;;;;6.30;4.40;;;12.00;50.90;;;;;;5010700;28;20467;-80
2023/05/18 04:38:13;;;;;;;5.73;3.23;;;12.10;50.90;;;;;;5033186;28;20550;-80
2023/05/18 04:40:42;;;;;;;8.33;4.00;;;12.10;50.80;;;;;;5022996;28;20477;-80
2023/05/18 04:43:10;;;;;;;4.80;3.37;;;12.10;50.90;;;;;;5032968;28;20445;-82
2023/05/18 04:45:37;;;;;;;4.53;3.70;;;12.00;51.10;;;;;;5005522;28;20453;-83
2023/05/18 04:48:05;;;;;;;6.23;3.63;;;12.10;51.30;;;;;;5022895;28;20488;-82
2023/05/18 04:50:34;;;;;;;8.07;4.00;;;12.10;51.70;;;;;;5021086;28;20480;-80
2023/05/18 04:53:06;;;;;;;4.63;3.67;;;12.10;52.10;;;;;;5007461;28;20458;-80
2023/05/18 04:55:34;;;;;;;4.80;3.27;;;12.10;51.50;;;;;;5034434;28;20453;-78
2023/05/18 04:58:09;;;;;;;4.00;3.43;;;12.20;52.10;;;;;;5032197;28;20489;-82
2023/05/18 05:00:36;;;;;;;5.53;3.13;;;12.20;52.60;;;;;;5017790;28;20520;-82
2023/05/18 05:03:03;;;;;;;4.50;3.70;;;12.30;52.10;;;;;;5032361;28;20482;-78
2023/05/18 05:05:30;;;;;;;4.10;3.40;;;12.30;51.90;;;;;;5028563;28;20460;-82
2023/05/18 05:07:58;;;;;;;7.30;3.73;;;12.30;52.10;;;;;;5017377;28;20458;-83
2023/05/18 05:10:26;;;;;;;6.33;4.30;;;12.30;51.90;;;;;;5032945;28;22277;-81
2023/05/18 05:12:54;;;;;;;5.67;4.60;;;12.30;51.80;;;;;;5037074;28;20472;-80
2023/05/18 05:15:21;;;;;;;9.50;4.40;;;12.40;52.00;;;;;;5035424;28;20469;-80
2023/05/18 05:17:50;;;;;;;11.30;4.23;;;12.40;52.10;;;;;;5022832;28;20545;-82
2023/05/18 05:20:17;;;;;;;5.93;3.40;;;12.40;52.40;;;;;;5020796;28;20475;-81
2023/05/18 05:22:44;;;;;;;8.80;3.70;;;12.50;52.30;;;;;;5011523;28;20452;-82
2023/05/18 05:25:15;;;;;;;6.77;4.37;;;12.50;52.60;;;;;;5024410;28;20832;-81
2023/05/18 05:27:42;;;;;;;5.90;4.27;;;12.50;52.30;;;;;;5034892;28;20553;-82
2023/05/18 05:30:10;;;;;;;4.40;3.10;;;12.60;52.20;;;;;;5041601;28;20972;-78
2023/05/18 05:32:38;;;;;;;7.63;3.40;;;12.70;52.40;;;;;;5019401;28;20472;-83
2023/05/18 05:35:07;;;;;;;5.47;3.23;;;12.70;51.60;;;;;;5015355;28;20484;-82
2023/05/18 05:37:35;;;;;;;4.13;3.20;;;12.70;51.40;;;;;;5034067;28;20518;-82
2023/05/18 05:40:05;;;;;;;4.10;3.20;;;12.80;51.10;;;;;;5031205;28;20453;-81
2023/05/18 05:42:36;;;;;;;9.90;3.47;;;12.90;52.00;;;;;;5018296;28;21457;-79
2023/05/18 05:45:04;;;;;;;7.90;2.87;;;13.10;51.50;;;;;;5024201;28;20479;-81
2023/05/18 05:47:35;;;;;;;9.10;3.67;;;13.10;50.80;;;;;;5045028;28;20488;-82
2023/05/18 05:50:02;;;;;;;4.93;3.30;;;13.20;50.60;;;;;;5017439;28;20441;-82
2023/05/18 05:52:29;;;;;;;5.67;3.10;;;13.30;51.00;;;;;;5015737;28;20484;-82
2023/05/18 05:54:57;;;;;;;4.20;2.90;;;13.40;50.30;;;;;;5032027;28;20454;-80
2023/05/18 05:57:25;;;;;;;5.90;3.00;;;13.40;50.10;;;;;;5019947;28;20448;-82
2023/05/18 05:59:53;;;;;;;12.10;3.40;;;13.50;50.10;;;;;;5015747;28;20468;-81
2023/05/18 06:02:20;;;;;;;6.10;3.00;;;13.60;50.10;;;;;;5031704;28;20545;-81
2023/05/18 06:04:47;;;;;;;7.93;4.00;;;13.60;49.70;;;;;;5019746;28;20462;-81
2023/05/18 06:07:14;;;;;;;4.20;2.97;;;13.80;50.80;;;;;;5008333;28;20456;-82
2023/05/18 06:09:42;;;;;;;6.50;3.20;;;13.90;50.10;;;;;;5043216;28;20446;-81
2023/05/18 06:12:10;;;;;;;5.40;3.67;;;13.80;49.50;;;;;;4997327;28;20565;-79
2023/05/18 06:14:38;;;;;;;7.13;3.60;;;13.90;49.70;;;;;;5001642;28;20492;-79
2023/05/18 06:17:07;;;;;;;11.20;3.67;;;13.80;49.80;;;;;;5030941;28;20448;-80
2023/05/18 06:19:34;;;;;;;4.10;3.20;;;13.70;50.60;;;;;;5024882;28;20510;-82
2023/05/18 06:22:01;;;;;;;5.40;3.20;;;13.80;49.90;;;;;;5020633;28;20475;-80
2023/05/18 06:24:32;;;;;;;13.53;2.90;;;13.80;49.60;;;;;;5030594;28;20445;-78
2023/05/18 06:27:34;;;;;;;5.40;2.80;;;13.80;50.00;;;;;;5027460;28;20452;-79
2023/05/18 06:30:30;;;;;;;6.27;3.20;;;13.90;50.10;;;;;;5041699;28;20825;-79
2023/05/18 06:33:14;;;;;;;4.90;3.57;;;13.90;49.00;;;;;;5023404;28;20828;-81
2023/05/18 06:35:41;;;;;;;9.03;3.47;;;14.10;49.90;;;;;;5006478;28;20454;-82
2023/05/18 06:38:08;;;;;;;4.83;3.33;;;14.10;49.10;;;;;;5014159;28;20455;-82
2023/05/18 06:40:35;;;;;;;5.67;2.90;;;14.30;49.90;;;;;;5032585;28;20480;-81
2023/05/18 06:43:02;;;;;;;4.03;2.87;;;14.40;49.70;;;;;;5033363;28;21118;-81
2023/05/18 06:45:43;;;;;;;5.93;3.30;;;14.50;49.70;;;;;;5017843;28;20457;-80
2023/05/18 06:48:22;;;;;;;5.77;3.17;;;14.60;48.90;;;;;;5021679;28;20481;-79
2023/05/18 06:50:49;;;;;;;2.90;2.70;;;14.70;49.30;;;;;;5001426;28;20477;-84
2023/05/18 06:53:16;;;;;;;6.80;3.73;;;14.70;49.10;;;;;;5024210;28;21145;-81
2023/05/18 06:55:44;;;;;;;8.87;3.67;;;14.50;48.60;;;;;;5017856;28;20463;-82
2023/05/18 06:58:11;;;;;;;10.53;3.60;;;14.50;48.90;;;;;;5051869;28;20449;-82
2023/05/18 07:00:39;;;;;;;5.53;2.77;;;14.70;49.50;;;;;;5019226;28;20476;-81
2023/05/18 07:03:07;;;;;;;3.10;2.57;;;14.80;48.80;;;;;;5039742;28;20505;-82
2023/05/18 07:05:35;;;;;;;4.63;2.80;;;15.00;49.00;;;;;;5020788;28;20441;-81
2023/05/18 07:08:03;;;;;;;8.67;3.73;;;15.10;48.80;;;;;;5025332;28;20472;-80
2023/05/18 07:10:30;;;;;;;5.90;3.30;;;15.10;47.80;;;;;;4995240;28;20531;-82
2023/05/18 07:12:57;;;;;;;11.37;4.00;;;15.10;48.20;;;;;;5031106;28;20469;-81
2023/05/18 07:15:25;;;;;;;6.53;3.53;;;15.00;47.50;;;;;;5013587;28;20476;-80
2023/05/18 07:17:52;;;;;;;6.33;3.70;;;15.10;48.40;;;;;;5025592;28;21105;-81
2023/05/18 07:20:19;;;;;;;7.70;3.07;;;15.10;47.90;;;;;;5038474;28;20456;-79
2023/05/18 07:22:48;;;;;;;7.57;2.47;;;15.30;49.50;;;;;;5025358;28;20456;-81
2023/05/18 07:25:15;;;;;;;7.30;2.73;;;15.50;48.30;;;;;;5009972;28;20938;-79
2023/05/18 07:27:43;;;;;;;4.43;2.83;;;15.70;48.20;;;;;;5025399;28;20820;-81
2023/05/18 07:30:11;;;;;;;5.27;2.63;;;15.90;47.40;;;;;;5046186;28;20507;-79
2023/05/18 07:32:38;;;;;;;3.40;2.60;;;15.90;47.30;;;;;;5032931;28;20724;-81
2023/05/18 07:35:05;;;;;;;3.40;2.23;;;16.10;47.40;;;;;;5018433;28;21040;-82
2023/05/18 07:37:32;;;;;;;7.97;2.90;;;16.20;46.80;;;;;;5034404;28;20453;-81
2023/05/18 07:40:01;;;;;;;6.70;2.80;;;16.20;45.40;;;;;;5034708;28;20457;-81
2023/05/18 07:42:28;;;;;;;6.37;2.80;;;16.30;45.10;;;;;;5021460;28;20464;-81
2023/05/18 07:44:54;;;;;;;4.20;2.50;;;16.10;43.60;;;;;;5049067;28;20722;-80
2023/05/18 07:47:22;;;;;;;6.20;2.50;;;16.10;43.70;;;;;;5036834;28;20523;-80
2023/05/18 07:49:49;;;;;;;3.50;2.53;;;16.10;44.00;;;;;;5008475;28;20449;-80
2023/05/18 07:52:16;;;;;;;7.90;2.80;;;16.30;44.10;;;;;;5034195;28;20525;-81
2023/05/18 07:54:43;;;;;;;5.03;2.40;;;16.10;44.00;;;;;;5001822;28;20870;-83
2023/05/18 07:57:11;;;;;;;4.90;2.60;;;16.20;44.20;;;;;;4998328;28;20475;-81
2023/05/18 07:59:38;;;;;;;5.00;2.00;;;16.30;44.10;;;;;;5042457;28;20536;-80
2023/05/18 08:02:06;;;;;;;8.63;2.37;;;16.40;44.40;;;;;;5033123;28;20469;-81
2023/05/18 08:04:33;;;;;;;7.30;3.40;;;16.60;44.20;;;;;;5049916;28;20457;-80
2023/05/18 08:07:00;;;;;;;9.50;2.47;;;16.70;43.40;;;;;;5009800;28;20449;-80
2023/05/18 08:09:27;;;;;;;13.70;4.43;;;16.40;43.20;;;;;;5033351;28;20446;-80
2023/05/18 08:11:55;;;;;;;10.67;4.13;;;16.70;43.20;;;;;;5035645;28;20481;-78
2023/05/18 08:14:24;;;;;;;6.30;3.40;;;16.80;43.00;;;;;;5016377;28;20445;-81
2023/05/18 08:16:50;;;;;;;4.87;2.50;;;17.00;43.20;;;;;;5018210;28;20446;-79
2023/05/18 08:19:18;;;;;;;4.73;2.20;;;17.10;41.40;;;;;;5033720;28;20448;-80
2023/05/18 08:21:45;;;;;;;8.13;2.90;;;17.10;41.20;;;;;;5039708;28;20504;-80
2023/05/18 08:24:12;;;;;;;3.60;2.40;;;17.30;40.70;;;;;;5049103;28;20962;-83
2023/05/18 08:26:39;;;;;;;6.23;2.23;;;17.40;40.50;;;;;;5033715;28;20449;-80
2023/05/18 08:29:09;;;;;;;6.03;2.30;;;17.60;41.20;;;;;;5028922;28;20476;-82
2023/05/18 08:31:38;;;;;;;10.43;3.23;;;17.70;40.00;;;;;;5043907;28;20562;-82
2023/05/18 08:34:05;;;;;;;13.63;2.40;;;17.80;40.30;;;;;;5027885;28;20481;-81
2023/05/18 08:36:33;;;;;;;4.70;2.83;;;17.80;40.00;;;;;;5032288;28;20964;-79
2023/05/18 08:39:01;;;;;;;4.47;2.83;;;18.00;38.90;;;;;;5026846;28;20455;-81
2023/05/18 08:41:30;;;;;;;3.90;1.90;;;17.80;39.70;;;;;;5035688;28;20469;-81
2023/05/18 08:44:02;;;;;;;3.60;2.07;;;18.00;39.70;;;;;;5017397;28;20563;-81
2023/05/18 08:46:34;;;;;;;5.80;2.30;;;18.30;38.60;;;;;;5038477;28;20882;-82
2023/05/18 08:49:04;;;;;;;4.93;2.10;;;18.40;39.00;;;;;;5042302;28;20448;-82
2023/05/18 08:51:34;;;;;;;11.67;2.37;;;18.40;37.80;;;;;;5016847;28;21088;-82
2023/05/18 08:54:02;;;;;;;3.43;1.83;;;18.40;38.20;;;;;;5018607;28;20480;-83
2023/05/18 08:56:32;;;;;;;3.53;2.00;;;18.40;37.50;;;;;;5033107;28;20453;-79
2023/05/18 08:58:59;;;;;;;5.93;1.90;;;18.50;37.30;;;;;;5051758;28;20503;-80
2023/05/18 09:01:28;;;;;;;3.63;2.13;;;18.60;39.20;;;;;;5025240;28;20991;-79
2023/05/18 09:03:56;;;;;;;6.07;2.10;;;18.80;38.00;;;;;;5006839;28;20453;-81
2023/05/18 09:06:27;;;;;;;8.90;3.07;;;19.10;37.70;;;;;;5016428;28;20448;-79
2023/05/18 09:08:55;;;;;;;9.33;2.60;;;19.30;38.10;;;;;;5021194;28;20526;-81
2023/05/18 09:11:24;;;;;;;4.97;2.27;;;19.50;37.10;;;;;;5010800;28;20564;-81
2023/05/18 09:13:51;;;;;;;6.57;2.50;;;19.50;36.60;;;;;;5034164;28;20477;-80
2023/05/18 09:16:18;;;;;;;5.80;2.10;;;19.80;36.80;;;;;;5020439;28;20901;-81
2023/05/18 09:18:45;;;;;;;3.73;2.20;;;20.00;34.60;;;;;;5037504;28;20445;-80
2023/05/18 09:21:12;;;;;;;4.80;1.90;;;20.10;35.80;;;;;;5023934;28;20478;-82
2023/05/18 09:23:41;;;;;;;6.20;2.10;;;20.20;36.40;;;;;;5008934;28;20442;-82
2023/05/18 09:26:10;;;;;;;2.80;2.27;;;20.50;34.60;;;;;;5001314;28;20445;-81
2023/05/18 09:28:38;;;;;;;6.03;1.77;;;20.60;34.40;;;;;;5025629;28;20801;-81
2023/05/18 09:31:07;;;;;;;4.87;2.13;;;20.50;34.10;;;;;;5033241;28;20474;-82
2023/05/18 09:33:36;;;;;;;5.10;2.00;;;20.70;35.10;;;;;;5036338;28;20508;-79
2023/05/18 09:36:05;;;;;;;6.07;2.10;;;21.00;34.80;;;;;;5022442;28;20498;-82
2023/05/18 09:38:36;;;;;;;3.30;2.30;;;21.00;34.10;;;;;;5009928;28;20444;-82
2023/05/18 09:41:11;;;;;;;3.00;2.20;;;20.80;33.90;;;;;;5031112;28;20497;-83
2023/05/18 09:43:38;;;;;;;3.23;2.10;;;20.60;33.30;;;;;;5032316;28;20451;-82
2023/05/18 09:46:07;;;;;;;3.70;2.40;;;20.10;33.70;;;;;;5018008;28;20440;-80
2023/05/18 09:48:36;;;;;;;8.60;2.53;;;19.80;35.00;;;;;;5015953;28;20452;-81
2023/05/18 09:51:05;;;;;;;4.03;2.20;;;19.80;34.70;;;;;;5032960;28;20472;-82
2023/05/18 09:53:36;;;;;;;6.90;2.37;;;19.60;33.30;;;;;;5049438;28;20465;-83
2023/05/18 09:56:10;;;;;;;5.37;2.80;;;19.30;34.00;;;;;;5014853;28;20453;-79
2023/05/18 09:58:38;;;;;;;5.00;2.50;;;19.40;36.60;;;;;;5051603;28;20542;-80
2023/05/18 10:01:05;;;;;;;6.80;2.10;;;19.60;35.00;;;;;;5050772;28;20523;-81
2023/05/18 10:03:35;;;;;;;9.07;2.53;;;19.40;35.50;;;;;;5033391;28;20457;-80
2023/05/18 10:06:07;;;;;;;5.40;2.70;;;19.40;34.90;;;;;;5003315;28;20449;-80
2023/05/18 10:08:34;;;;;;;5.60;3.00;;;19.40;35.00;;;;;;5024009;28;20460;-79
2023/05/18 10:11:02;;;;;;;3.57;1.60;;;19.50;35.00;;;;;;5020467;28;20851;-80
2023/05/18 10:13:32;;;;;;;6.80;2.43;;;19.50;34.30;;;;;;5022850;28;21151;-78
2023/05/18 10:16:01;;;;;;;3.30;1.80;;;19.40;34.80;;;;;;5001136;28;20460;-81
2023/05/18 10:18:29;;;;;;;3.40;2.70;;;19.60;34.10;;;;;;5019196;28;20457;-80
2023/05/18 10:20:59;;;;;;;5.87;1.80;;;19.80;35.50;;;;;;5005691;28;20551;-82
2023/05/18 10:23:27;;;;;;;5.13;2.80;;;20.10;36.00;;;;;;5031530;28;20480;-80
2023/05/18 10:25:54;;;;;;;4.50;1.87;;;20.40;35.00;;;;;;5019672;28;20448;-81
2023/05/18 10:28:27;;;;;;;5.90;2.17;;;20.50;33.50;;;;;;5008564;28;20454;-79
2023/05/18 10:30:58;;;;;;;4.97;2.67;;;20.60;33.20;;;;;;5049564;28;20840;-80
2023/05/18 10:33:26;;;;;;;6.63;3.17;;;20.90;33.00;;;;;;5015959;28;20473;-81
2023/05/18 10:35:53;;;;;;;11.73;4.33;;;21.00;30.40;;;;;;5019521;28;20460;-79
2023/05/18 10:38:22;;;;;;;9.73;3.70;;;20.90;33.30;;;;;;5029786;28;20461;-82
2023/05/18 10:40:51;;;;;;;6.70;3.00;;;21.10;32.00;;;;;;5034772;28;20483;-81
2023/05/18 10:43:26;;;;;;;4.57;3.00;;;21.50;32.70;;;;;;5022911;28;21197;-82
2023/05/18 10:45:55;;;;;;;6.97;3.93;;;21.50;30.00;;;;;;5016961;28;20476;-82
2023/05/18 10:48:23;;;;;;;6.00;3.77;;;21.80;29.50;;;;;;5028790;28;21153;-80
2023/05/18 10:50:52;;;;;;;7.80;5.00;;;21.60;30.20;;;;;;5006774;28;20499;-81
2023/05/18 10:53:21;;;;;;;5.93;3.33;;;21.50;29.40;;;;;;5033518;28;21165;-81
2023/05/18 10:55:49;;;;;;;11.87;2.60;;;21.60;28.70;;;;;;5025558;28;20455;-83
2023/05/18 10:58:18;;;;;;;7.37;3.23;;;21.80;30.60;;;;;;5023206;28;20548;-82
2023/05/18 11:00:48;;;;;;;5.27;2.40;;;22.30;31.00;;;;;;5030688;28;20476;-83
2023/05/18 11:03:17;;;;;;;5.27;2.03;;;22.40;29.40;;;;;;5023851;28;20453;-84
2023/05/18 11:05:48;;;;;;;7.67;2.77;;;22.10;29.30;;;;;;5031478;28;20548;-82
2023/05/18 11:08:25;;;;;;;4.20;2.10;;;22.20;30.10;;;;;;5018666;28;20965;-81
2023/05/18 11:11:00;;;;;;;11.50;8.37;;;22.70;30.80;;;;;;5035045;28;20472;-81
2023/05/18 11:13:29;;;;;;;5.90;3.40;;;23.10;29.30;;;;;;5052331;28;20522;-81
2023/05/18 11:16:06;;;;;;;9.13;2.57;;;23.50;29.40;;;;;;5042382;28;20544;-83
2023/05/18 11:18:44;;;;;;;6.83;2.37;;;23.20;28.50;;;;;;5021010;28;20543;-81
2023/05/18 11:21:28;;;;;;;7.20;3.33;;;22.80;28.50;;;;;;5036139;28;21298;-82
2023/05/18 11:24:18;;;;;;;6.93;3.10;;;22.30;29.20;;;;;;5035983;28;20540;-80
2023/05/18 11:26:46;;;;;;;5.47;2.80;;;22.10;29.80;;;;;;5051893;28;20480;-81
2023/05/18 11:29:22;;;;;;;7.97;3.00;;;22.10;29.80;;;;;;5026500;28;21691;-80
2023/05/18 11:31:51;;;;;;;5.57;2.20;;;21.80;29.60;;;;;;5038983;28;20562;-81
2023/05/18 11:34:43;;;;;;;9.73;2.77;;;21.60;30.40;;;;;;5019005;28;20473;-81
2023/05/18 11:37:11;;;;;;;7.00;2.47;;;21.50;30.50;;;;;;5020962;28;20623;-81
2023/05/18 11:39:39;;;;;;;5.50;2.17;;;21.70;29.70;;;;;;5045387;28;20446;-81
2023/05/18 11:42:08;;;;;;;4.00;2.20;;;21.70;29.80;;;;;;5034521;28;20477;-82
2023/05/18 11:44:35;;;;;;;7.63;3.17;;;21.60;29.30;;;;;;5020165;28;20442;-81
2023/05/18 11:47:03;;;;;;;5.13;2.33;;;21.80;30.20;;;;;;5033492;28;20452;-82
2023/05/18 11:49:32;;;;;;;12.73;2.63;;;21.80;30.40;;;;;;5037336;28;20501;-83
2023/05/18 11:52:13;;;;;;;2.73;2.17;;;22.10;29.40;;;;;;5054411;28;20469;-82
2023/05/18 11:54:43;;;;;;;4.80;2.10;;;22.10;28.70;;;;;;5044702;28;20575;-82
2023/05/18 11:57:10;;;;;;;9.03;2.17;;;22.30;29.00;;;;;;5036181;28;20433;-81
2023/05/18 11:59:40;;;;;;;7.60;4.60;;;22.60;29.30;;;;;;5053507;28;20487;-80
2023/05/18 12:02:10;;;;;;;7.93;4.53;;;22.70;28.70;;;;;;5035391;28;20471;-79
2023/05/18 12:04:43;;;;;;;4.83;2.10;;;23.30;28.40;;;;;;5022368;28;20446;-80
2023/05/18 12:07:11;;;;;;;3.67;1.90;;;23.40;28.30;;;;;;5020286;28;20457;-80
2023/05/18 12:09:41;;;;;;;6.70;1.93;;;23.60;28.70;;;;;;5022098;28;20943;-82
2023/05/18 12:12:09;;;;;;;3.47;2.10;;;23.60;28.20;;;;;;5042927;28;20489;-82
2023/05/18 12:14:38;;;;;;;3.13;2.23;;;23.50;28.00;;;;;;5051680;28;20481;-81
2023/05/18 12:17:05;;;;;;;7.70;2.50;;;23.30;27.70;;;;;;5029233;28;20441;-81
2023/05/18 12:19:37;;;;;;;8.27;1.90;;;22.70;28.00;;;;;;5045009;28;20461;-81
2023/05/18 12:22:05;;;;;;;3.40;1.80;;;22.60;30.30;;;;;;5040530;28;20528;-81
2023/05/18 12:24:34;;;;;;;6.07;2.00;;;22.60;29.60;;;;;;5018844;28;20448;-82
2023/05/18 12:27:05;;;;;;;7.23;2.47;;;22.50;27.90;;;;;;5054003;28;20459;-81
2023/05/18 12:29:32;;;;;;;2.80;1.90;;;22.40;28.70;;;;;;5023524;28;20551;-81
2023/05/18 12:31:59;;;;;;;5.47;2.10;;;22.40;29.00;;;;;;5035581;28;20482;-81
2023/05/18 12:34:29;;;;;;;6.13;2.20;;;22.50;28.90;;;;;;5044476;28;20464;-80
2023/05/18 12:36:56;;;;;;;10.00;2.27;;;22.60;28.70;;;;;;5056747;28;20453;-81
2023/05/18 12:39:25;;;;;;;5.27;2.00;;;22.40;29.00;;;;;;5034183;28;20476;-83
2023/05/18 12:41:53;;;;;;;4.80;2.00;;;22.30;29.60;;;;;;5035871;28;20461;-79
2023/05/18 12:44:21;;;;;;;5.73;3.17;;;22.30;29.40;;;;;;5052862;28;20445;-81
2023/05/18 12:46:48;;;;;;;3.87;2.17;;;22.50;29.20;;;;;;5036175;28;20489;-82
2023/05/18 12:49:18;;;;;;;4.77;2.70;;;22.80;29.30;;;;;;5033217;28;20449;-81
2023/05/18 12:51:45;;;;;;;3.87;2.37;;;22.70;28.90;;;;;;5036101;28;20515;-83
2023/05/18 12:54:12;;;;;;;4.83;2.20;;;22.80;29.20;;;;;;5025952;28;20473;-85